Time,TemperatureF,DewpointF,PressureIn,WindDirection,WindDirectionDegrees,WindSpeedMPH,WindSpeedGustMPH,Humidity,HourlyPrecipIn,Conditions,Clouds,dailyrainin,SoftwareType,DateUTC
2013-12-01 00:05:00,52.9,42.6,30.09,ENE,72,0.0,0.0,68,0.00,,CLR,0.00,VWS V14.01,2013-12-01 08:05:00,
2013-12-01 00:11:00,52.7,42.4,30.09,NE,48,0.0,0.0,68,0.00,,CLR,0.00,VWS V14.01,2013-12-01 08:11:00,
2013-12-01 00:16:00,52.7,42.4,30.09,NE,48,0.0,0.0,68,0.00,,CLR,0.00,VWS V14.01,2013-12-01 08:16:00,
2013-12-01 00:22:00,52.7,42.8,30.09,NE,48,0.0,0.0,69,0.00,,CLR,0.00,VWS V14.01,2013-12-01 08:22:00,
2013-12-01 00:27:00,52.7,42.8,30.09,NE,48,0.0,0.0,69,0.00,,CLR,0.00,VWS V14.01,2013-12-01 08:27:00,
2013-12-01 00:32:00,52.5,42.6,30.09,NE,48,0.0,0.0,69,0.00,,CLR,0.00,VWS V14.01,2013-12-01 08:32:00,
2013-12-01 00:37:00,52.5,42.6,30.09,NE,48,0.0,0.0,69,0.00,,CLR,0.00,VWS V14.01,2013-12-01 08:37:00,
2013-12-01 00:43:00,52.3,42.8,30.09,NE,34,3.1,3.1,70,0.00,,CLR,0.00,VWS V14.01,2013-12-01 08:43:00,
2013-12-01 00:49:00,52.5,43.4,30.09,NW,315,3.6,4.0,71,0.00,,CLR,0.00,VWS V14.01,2013-12-01 08:49:00,
2013-12-01 00:54:00,52.5,43.4,30.09,NNW,339,3.1,3.1,71,0.00,,CLR,0.00,VWS V14.01,2013-12-01 08:54:00,
2013-12-01 01:00:00,52.7,43.5,30.09,NNW,331,0.0,2.2,71,0.00,,CLR,0.00,VWS V14.01,2013-12-01 09:00:00,
2013-12-01 01:05:00,52.5,43.4,30.09,NNW,331,0.0,0.0,71,0.00,,CLR,0.00,VWS V14.01,2013-12-01 09:05:00,
2013-12-01 01:10:00,52.5,43.4,30.09,NNW,331,0.0,0.0,71,0.00,,CLR,0.00,VWS V14.01,2013-12-01 09:10:00,
2013-12-01 01:15:00,52.3,43.2,30.09,East,90,0.0,0.0,71,0.00,,CLR,0.00,VWS V14.01,2013-12-01 09:15:00,
2013-12-01 01:20:00,52.3,43.2,30.09,East,90,0.0,0.0,71,0.00,,CLR,0.00,VWS V14.01,2013-12-01 09:20:00,
2013-12-01 01:25:00,52.1,43.0,30.09,East,90,0.0,0.0,71,0.00,,CLR,0.00,VWS V14.01,2013-12-01 09:25:00,
2013-12-01 01:31:00,52.0,42.9,30.09,East,90,0.0,0.0,71,0.00,,CLR,0.00,VWS V14.01,2013-12-01 09:31:00,
2013-12-01 01:36:00,52.0,42.9,30.09,NNW,341,2.7,2.7,71,0.00,,CLR,0.00,VWS V14.01,2013-12-01 09:36:00,
2013-12-01 01:42:00,52.0,42.9,30.09,NNW,341,0.0,0.0,71,0.00,,CLR,0.00,VWS V14.01,2013-12-01 09:42:00,
2013-12-01 01:47:00,51.8,42.7,30.09,NNW,341,2.2,2.7,71,0.00,,CLR,0.00,VWS V14.01,2013-12-01 09:47:00,
2013-12-01 01:53:00,51.8,42.7,30.09,NNW,341,2.7,2.7,71,0.00,,CLR,0.00,VWS V14.01,2013-12-01 09:53:00,
2013-12-01 01:59:00,51.8,42.7,30.09,NNW,341,0.0,0.0,71,0.00,,CLR,0.00,VWS V14.01,2013-12-01 09:59:00,
2013-12-01 02:04:00,51.6,42.5,30.09,NNW,341,0.0,0.0,71,0.00,,CLR,0.00,VWS V14.01,2013-12-01 10:04:00,
2013-12-01 02:10:00,51.2,42.2,30.09,NNW,341,0.0,0.0,71,0.00,,CLR,0.00,VWS V14.01,2013-12-01 10:10:00,
2013-12-01 02:15:00,51.1,42.0,30.09,NNW,341,0.0,0.0,71,0.00,,CLR,0.00,VWS V14.01,2013-12-01 10:15:00,
2013-12-01 02:21:00,51.1,42.0,30.09,NNW,341,0.0,0.0,71,0.00,,CLR,0.00,VWS V14.01,2013-12-01 10:21:00,
2013-12-01 02:26:00,50.9,41.8,30.09,NNW,341,0.0,0.0,71,0.00,,CLR,0.00,VWS V14.01,2013-12-01 10:26:00,
2013-12-01 02:32:00,50.7,41.7,30.12,NNW,341,0.0,0.0,71,0.00,,CLR,0.00,VWS V14.01,2013-12-01 10:32:00,
2013-12-01 02:37:00,50.7,41.7,30.12,NNW,341,0.0,0.0,71,0.00,,CLR,0.00,VWS V14.01,2013-12-01 10:37:00,
2013-12-01 02:42:00,50.5,41.5,30.12,NNW,341,0.0,0.0,71,0.00,,CLR,0.00,VWS V14.01,2013-12-01 10:42:00,
2013-12-01 02:47:00,50.3,41.3,30.12,NW,319,3.6,4.0,71,0.00,,CLR,0.00,VWS V14.01,2013-12-01 10:47:00,
2013-12-01 02:53:00,50.5,41.5,30.12,NW,325,0.0,2.2,71,0.00,,CLR,0.00,VWS V14.01,2013-12-01 10:53:00,
2013-12-01 02:59:00,50.3,41.3,30.12,NW,325,0.0,0.0,71,0.00,,CLR,0.00,VWS V14.01,2013-12-01 10:59:00,
2013-12-01 03:04:00,50.2,41.1,30.12,NW,325,0.0,0.0,71,0.00,,CLR,0.00,VWS V14.01,2013-12-01 11:04:00,
2013-12-01 03:10:00,50.0,41.0,30.12,NW,325,0.0,0.0,71,0.00,,CLR,0.00,VWS V14.01,2013-12-01 11:10:00,
2013-12-01 03:15:00,50.0,41.3,30.12,NW,325,0.0,0.0,72,0.00,,CLR,0.00,VWS V14.01,2013-12-01 11:15:00,
2013-12-01 03:21:00,49.8,41.2,30.12,NW,325,0.0,0.0,72,0.00,,CLR,0.00,VWS V14.01,2013-12-01 11:21:00,
2013-12-01 03:27:00,49.6,41.3,30.12,NW,325,0.0,0.0,73,0.00,,CLR,0.00,VWS V14.01,2013-12-01 11:27:00,
2013-12-01 03:32:00,49.4,41.2,30.12,NW,325,0.0,0.0,73,0.00,,CLR,0.00,VWS V14.01,2013-12-01 11:32:00,
2013-12-01 03:38:00,49.3,41.0,30.12,NW,325,0.0,0.0,73,0.00,,CLR,0.00,VWS V14.01,2013-12-01 11:38:00,
2013-12-01 03:43:00,49.1,40.8,30.12,NW,325,0.0,0.0,73,0.00,,CLR,0.00,VWS V14.01,2013-12-01 11:43:00,
2013-12-01 03:49:00,49.1,40.8,30.12,NW,325,0.0,0.0,73,0.00,,CLR,0.00,VWS V14.01,2013-12-01 11:49:00,
2013-12-01 03:55:00,48.9,40.6,30.12,NW,325,0.0,0.0,73,0.00,,CLR,0.00,VWS V14.01,2013-12-01 11:55:00,
2013-12-01 04:00:00,48.9,40.6,30.12,NW,325,0.0,0.0,73,0.00,,CLR,0.00,VWS V14.01,2013-12-01 12:00:00,
2013-12-01 04:06:00,48.7,40.8,30.12,NW,325,0.0,0.0,74,0.00,,CLR,0.00,VWS V14.01,2013-12-01 12:06:00,
2013-12-01 04:11:00,48.5,40.6,30.12,NW,325,0.0,0.0,74,0.00,,CLR,0.00,VWS V14.01,2013-12-01 12:11:00,
2013-12-01 04:17:00,48.4,40.5,30.12,NW,325,0.0,0.0,74,0.00,,CLR,0.00,VWS V14.01,2013-12-01 12:17:00,
2013-12-01 04:22:00,48.2,40.3,30.12,NW,325,0.0,0.0,74,0.00,,CLR,0.00,VWS V14.01,2013-12-01 12:22:00,
2013-12-01 04:27:00,48.2,40.3,30.12,NW,325,0.0,0.0,74,0.00,,CLR,0.00,VWS V14.01,2013-12-01 12:27:00,
2013-12-01 04:32:00,48.2,40.3,30.12,NW,325,0.0,0.0,74,0.00,,CLR,0.00,VWS V14.01,2013-12-01 12:32:00,
2013-12-01 04:37:00,48.0,40.1,30.12,NW,325,0.0,0.0,74,0.00,,CLR,0.00,VWS V14.01,2013-12-01 12:37:00,
2013-12-01 04:43:00,47.8,40.0,30.12,NW,325,0.0,0.0,74,0.00,,CLR,0.00,VWS V14.01,2013-12-01 12:43:00,
2013-12-01 04:48:00,47.6,39.8,30.12,NW,325,0.0,0.0,74,0.00,,CLR,0.00,VWS V14.01,2013-12-01 12:48:00,
2013-12-01 04:54:00,47.5,39.6,30.12,NW,325,0.0,0.0,74,0.00,,CLR,0.00,VWS V14.01,2013-12-01 12:54:00,
2013-12-01 04:59:00,47.5,39.6,30.12,NW,325,0.0,0.0,74,0.00,,CLR,0.00,VWS V14.01,2013-12-01 12:59:00,
2013-12-01 05:05:00,47.5,39.6,30.12,NW,325,0.0,0.0,74,0.00,,CLR,0.00,VWS V14.01,2013-12-01 13:05:00,
2013-12-01 05:10:00,47.3,39.4,30.12,NW,325,0.0,0.0,74,0.00,,CLR,0.00,VWS V14.01,2013-12-01 13:10:00,
2013-12-01 05:16:00,47.3,39.4,30.12,NW,325,0.0,0.0,74,0.00,,CLR,0.00,VWS V14.01,2013-12-01 13:16:00,
2013-12-01 05:21:00,47.5,39.6,30.12,NW,325,0.0,0.0,74,0.00,,CLR,0.00,VWS V14.01,2013-12-01 13:21:00,
2013-12-01 05:26:00,47.5,39.6,30.12,NW,325,0.0,0.0,74,0.00,,CLR,0.00,VWS V14.01,2013-12-01 13:26:00,
2013-12-01 05:32:00,47.3,39.8,30.12,NW,325,0.0,0.0,75,0.00,,CLR,0.00,VWS V14.01,2013-12-01 13:32:00,
2013-12-01 05:38:00,47.1,39.2,30.12,NW,325,0.0,0.0,74,0.00,,CLR,0.00,VWS V14.01,2013-12-01 13:38:00,
2013-12-01 05:44:00,46.9,39.1,30.12,NW,325,0.0,0.0,74,0.00,,CLR,0.00,VWS V14.01,2013-12-01 13:44:00,
2013-12-01 05:50:00,46.9,39.1,30.12,NW,325,0.0,0.0,74,0.00,,CLR,0.00,VWS V14.01,2013-12-01 13:50:00,
2013-12-01 05:55:00,46.9,39.4,30.12,NW,325,0.0,0.0,75,0.00,,CLR,0.00,VWS V14.01,2013-12-01 13:55:00,
2013-12-01 06:01:00,46.9,39.4,30.12,NW,325,0.0,0.0,75,0.00,,CLR,0.00,VWS V14.01,2013-12-01 14:01:00,
2013-12-01 06:06:00,46.9,39.4,30.12,NW,325,0.0,0.0,75,0.00,,CLR,0.00,VWS V14.01,2013-12-01 14:06:00,
2013-12-01 06:12:00,46.9,39.4,30.12,NW,325,0.0,0.0,75,0.00,,CLR,0.00,VWS V14.01,2013-12-01 14:12:00,
2013-12-01 06:17:00,47.1,39.6,30.15,NW,325,0.0,0.0,75,0.00,,CLR,0.00,VWS V14.01,2013-12-01 14:17:00,
2013-12-01 06:23:00,47.1,39.6,30.15,NW,325,0.0,0.0,75,0.00,,CLR,0.00,VWS V14.01,2013-12-01 14:23:00,
2013-12-01 06:29:00,46.9,39.4,30.15,NW,325,0.0,0.0,75,0.00,,CLR,0.00,VWS V14.01,2013-12-01 14:29:00,
2013-12-01 06:35:00,46.9,39.4,30.15,NW,325,0.0,0.0,75,0.00,,CLR,0.00,VWS V14.01,2013-12-01 14:35:00,
2013-12-01 06:41:00,46.7,39.2,30.15,NW,325,0.0,0.0,75,0.00,,CLR,0.00,VWS V14.01,2013-12-01 14:41:00,
2013-12-01 06:47:00,46.7,39.2,30.15,NW,325,0.0,0.0,75,0.00,,CLR,0.00,VWS V14.01,2013-12-01 14:47:00,
2013-12-01 06:52:00,46.9,39.8,30.15,NW,325,0.0,0.0,76,0.00,,CLR,0.00,VWS V14.01,2013-12-01 14:52:00,
2013-12-01 06:57:00,47.1,39.9,30.15,NW,325,0.0,0.0,76,0.00,,CLR,0.00,VWS V14.01,2013-12-01 14:57:00,
2013-12-01 07:02:00,47.3,40.1,30.15,NW,325,0.0,0.0,76,0.00,,CLR,0.00,VWS V14.01,2013-12-01 15:02:00,
2013-12-01 07:08:00,47.3,40.1,30.15,NW,325,0.0,0.0,76,0.00,,CLR,0.00,VWS V14.01,2013-12-01 15:08:00,
2013-12-01 07:14:00,47.5,40.3,30.15,NW,325,0.0,0.0,76,0.00,,CLR,0.00,VWS V14.01,2013-12-01 15:14:00,
2013-12-01 07:19:00,47.8,41.0,30.15,NW,325,0.0,0.0,77,0.00,,CLR,0.00,VWS V14.01,2013-12-01 15:19:00,
2013-12-01 07:24:00,48.0,41.2,30.15,NW,325,0.0,0.0,77,0.00,,CLR,0.00,VWS V14.01,2013-12-01 15:24:00,
2013-12-01 07:29:00,48.2,41.3,30.15,NW,325,0.0,0.0,77,0.00,,CLR,0.00,VWS V14.01,2013-12-01 15:29:00,
2013-12-01 07:35:00,48.7,41.8,30.15,NW,325,0.0,0.0,77,0.00,,CLR,0.00,VWS V14.01,2013-12-01 15:35:00,
2013-12-01 07:40:00,49.1,42.5,30.15,NW,325,0.0,0.0,78,0.00,,CLR,0.00,VWS V14.01,2013-12-01 15:40:00,
2013-12-01 07:46:00,49.8,42.9,30.15,NW,325,0.0,0.0,77,0.00,,CLR,0.00,VWS V14.01,2013-12-01 15:46:00,
2013-12-01 07:52:00,51.1,44.1,30.15,NW,322,4.0,4.0,77,0.00,,CLR,0.00,VWS V14.01,2013-12-01 15:52:00,
2013-12-01 07:57:00,52.0,44.6,30.15,NNW,337,3.6,3.6,76,0.00,,CLR,0.00,VWS V14.01,2013-12-01 15:57:00,
2013-12-01 08:03:00,53.0,45.3,30.15,NNW,339,0.0,0.0,75,0.00,,CLR,0.00,VWS V14.01,2013-12-01 16:03:00,
2013-12-01 08:08:00,54.5,46.0,30.15,NNW,339,0.0,0.0,73,0.00,,CLR,0.00,VWS V14.01,2013-12-01 16:08:00,
2013-12-01 08:14:00,55.6,46.3,30.15,NNW,339,0.0,0.0,71,0.00,,CLR,0.00,VWS V14.01,2013-12-01 16:14:00,
2013-12-01 08:20:00,56.6,46.6,30.15,NNW,339,2.7,4.0,69,0.00,,CLR,0.00,VWS V14.01,2013-12-01 16:20:00,
2013-12-01 08:25:00,56.6,42.5,30.15,NNW,339,2.7,3.1,59,0.00,,CLR,0.00,VWS V14.01,2013-12-01 16:25:00,
2013-12-01 08:31:00,58.4,40.4,30.18,NNW,339,3.1,3.6,51,0.00,,CLR,0.00,VWS V14.01,2013-12-01 16:31:00,
2013-12-01 08:36:00,59.0,38.2,30.18,NNW,338,3.6,4.0,46,0.00,,CLR,0.00,VWS V14.01,2013-12-01 16:36:00,
2013-12-01 08:42:00,60.2,33.9,30.18,NNW,327,2.2,4.0,37,0.00,,CLR,0.00,VWS V14.01,2013-12-01 16:42:00,
2013-12-01 08:47:00,61.0,33.8,30.18,NW,324,3.1,3.1,36,0.00,,CLR,0.00,VWS V14.01,2013-12-01 16:47:00,
2013-12-01 08:53:00,61.9,32.5,30.18,NW,318,4.0,4.5,33,0.00,,CLR,0.00,VWS V14.01,2013-12-01 16:53:00,
2013-12-01 08:58:00,62.6,29.0,30.18,NW,313,3.1,4.0,28,0.00,,CLR,0.00,VWS V14.01,2013-12-01 16:58:00,
2013-12-01 09:03:00,63.5,28.0,30.18,NW,309,3.6,4.0,26,0.00,,CLR,0.00,VWS V14.01,2013-12-01 17:03:00,
2013-12-01 09:08:00,64.2,26.7,30.18,NW,313,3.6,4.0,24,0.00,,CLR,0.00,VWS V14.01,2013-12-01 17:08:00,
2013-12-01 09:14:00,64.9,27.3,30.18,North,353,0.0,3.1,24,0.00,,CLR,0.00,VWS V14.01,2013-12-01 17:14:00,
2013-12-01 09:20:00,65.8,28.0,30.18,NW,307,2.2,3.1,24,0.00,,CLR,0.00,VWS V14.01,2013-12-01 17:20:00,
2013-12-01 09:25:00,66.7,27.8,30.18,NW,306,2.7,4.0,23,0.00,,CLR,0.00,VWS V14.01,2013-12-01 17:25:00,
2013-12-01 09:31:00,67.4,27.3,30.18,NNW,333,2.2,5.8,22,0.00,,CLR,0.00,VWS V14.01,2013-12-01 17:31:00,
2013-12-01 09:37:00,68.3,28.0,30.18,NNW,341,3.6,6.3,22,0.00,,CLR,0.00,VWS V14.01,2013-12-01 17:37:00,
2013-12-01 09:43:00,68.9,25.0,30.18,North,353,4.9,6.3,19,0.00,,CLR,0.00,VWS V14.01,2013-12-01 17:43:00,
2013-12-01 09:49:00,69.4,22.8,30.18,North,353,4.0,5.4,17,0.00,,CLR,0.00,VWS V14.01,2013-12-01 17:49:00,
2013-12-01 09:55:00,70.3,22.0,30.18,North,357,4.0,5.4,16,0.00,,CLR,0.00,VWS V14.01,2013-12-01 17:55:00,
2013-12-01 10:00:00,71.0,19.5,30.18,North,353,3.6,4.9,14,0.00,,CLR,0.00,VWS V14.01,2013-12-01 18:00:00,
2013-12-01 10:06:00,72.1,18.6,30.18,North,11,0.0,3.1,13,0.00,,CLR,0.00,VWS V14.01,2013-12-01 18:06:00,
2013-12-01 10:11:00,73.0,19.3,30.18,NNE,12,3.1,3.6,13,0.00,,CLR,0.00,VWS V14.01,2013-12-01 18:11:00,
2013-12-01 10:17:00,74.1,14.1,30.18,WNW,291,2.2,3.1,10,0.00,,CLR,0.00,VWS V14.01,2013-12-01 18:17:00,
2013-12-01 10:23:00,74.6,14.5,30.18,North,349,2.2,2.7,10,0.00,,CLR,0.00,VWS V14.01,2013-12-01 18:23:00,
2013-12-01 10:28:00,75.2,14.9,30.18,NW,325,3.6,5.4,10,0.00,,CLR,0.00,VWS V14.01,2013-12-01 18:28:00,
2013-12-01 10:33:00,75.7,15.3,30.15,NNW,339,4.9,4.9,10,0.00,,CLR,0.00,VWS V14.01,2013-12-01 18:33:00,
2013-12-01 10:38:00,75.9,15.5,30.15,NNW,340,5.4,5.8,10,0.00,,CLR,0.00,VWS V14.01,2013-12-01 18:38:00,
2013-12-01 10:44:00,76.4,15.9,30.15,WNW,299,4.9,5.4,10,0.00,,CLR,0.00,VWS V14.01,2013-12-01 18:44:00,
2013-12-01 10:49:00,76.8,16.2,30.15,NNW,329,4.9,4.9,10,0.00,,CLR,0.00,VWS V14.01,2013-12-01 18:49:00,
2013-12-01 10:54:00,77.3,16.6,30.15,WNW,283,2.7,3.6,10,0.00,,CLR,0.00,VWS V14.01,2013-12-01 18:54:00,
2013-12-01 10:59:00,78.4,17.4,30.15,North,353,3.6,4.9,10,0.00,,CLR,0.00,VWS V14.01,2013-12-01 18:59:00,
2013-12-01 11:04:00,78.2,17.2,30.15,WNW,293,3.6,4.0,10,0.00,,CLR,0.00,VWS V14.01,2013-12-01 19:04:00,
2013-12-01 11:09:00,78.4,17.4,30.15,NW,308,2.7,4.9,10,0.00,,CLR,0.00,VWS V14.01,2013-12-01 19:09:00,
2013-12-01 11:14:00,78.6,15.1,30.12,WNW,294,5.4,5.4,9,0.00,,CLR,0.00,VWS V14.01,2013-12-01 19:14:00,
2013-12-01 11:20:00,79.5,15.8,30.12,NNW,337,2.2,3.6,9,0.00,,CLR,0.00,VWS V14.01,2013-12-01 19:20:00,
2013-12-01 11:25:00,80.4,16.5,30.12,NW,313,0.0,4.0,9,0.00,,CLR,0.00,VWS V14.01,2013-12-01 19:25:00,
2013-12-01 11:30:00,81.1,17.0,30.12,WNW,293,3.1,3.6,9,0.00,,CLR,0.00,VWS V14.01,2013-12-01 19:30:00,
2013-12-01 11:35:00,81.1,17.0,30.12,NW,325,4.9,4.9,9,0.00,,CLR,0.00,VWS V14.01,2013-12-01 19:35:00,
2013-12-01 11:41:00,81.3,17.1,30.12,NNW,340,3.6,5.4,9,0.00,,CLR,0.00,VWS V14.01,2013-12-01 19:41:00,
2013-12-01 11:45:00,81.3,17.1,30.09,West,279,5.4,6.3,9,0.00,,CLR,0.00,VWS V14.01,2013-12-01 19:45:00,
2013-12-01 11:50:00,80.0,16.2,30.09,West,280,2.7,4.9,9,0.00,,CLR,0.00,VWS V14.01,2013-12-01 19:50:00,
2013-12-01 11:56:00,81.3,17.1,30.09,NW,319,0.0,0.0,9,0.00,,CLR,0.00,VWS V14.01,2013-12-01 19:56:00,
2013-12-01 12:02:00,82.2,15.1,30.09,WSW,241,3.1,5.8,8,0.00,,CLR,0.00,VWS V14.01,2013-12-01 20:02:00,
2013-12-01 12:08:00,81.3,17.1,30.09,North,353,5.8,5.8,9,0.00,,CLR,0.00,VWS V14.01,2013-12-01 20:08:00,
2013-12-01 12:13:00,82.2,15.1,30.09,West,259,4.0,4.0,8,0.00,,CLR,0.00,VWS V14.01,2013-12-01 20:13:00,
2013-12-01 12:19:00,82.7,15.5,30.09,South,187,0.0,3.1,8,0.00,,CLR,0.00,VWS V14.01,2013-12-01 20:19:00,
2013-12-01 12:24:00,82.6,15.4,30.09,West,275,3.1,4.0,8,0.00,,CLR,0.00,VWS V14.01,2013-12-01 20:24:00,
2013-12-01 12:30:00,83.3,15.9,30.09,WNW,299,3.1,3.1,8,0.00,,CLR,0.00,VWS V14.01,2013-12-01 20:30:00,
2013-12-01 12:36:00,84.0,16.4,30.09,NNW,327,3.1,4.9,8,0.00,,CLR,0.00,VWS V14.01,2013-12-01 20:36:00,
2013-12-01 12:41:00,84.4,16.7,30.09,NW,316,2.2,2.7,8,0.00,,CLR,0.00,VWS V14.01,2013-12-01 20:41:00,
2013-12-01 12:46:00,83.3,15.9,30.06,WNW,299,4.0,5.4,8,0.00,,CLR,0.00,VWS V14.01,2013-12-01 20:46:00,
2013-12-01 12:51:00,84.5,16.8,30.06,North,353,0.0,2.7,8,0.00,,CLR,0.00,VWS V14.01,2013-12-01 20:51:00,
2013-12-01 12:57:00,85.3,17.4,30.06,West,268,2.7,3.1,8,0.00,,CLR,0.00,VWS V14.01,2013-12-01 20:57:00,
2013-12-01 13:02:00,83.5,16.0,30.06,WNW,287,4.0,5.8,8,0.00,,CLR,0.00,VWS V14.01,2013-12-01 21:02:00,
2013-12-01 13:08:00,84.4,16.7,30.06,NNW,332,4.9,5.4,8,0.00,,CLR,0.00,VWS V14.01,2013-12-01 21:08:00,
2013-12-01 13:13:00,84.4,16.7,30.06,WSW,243,5.8,5.8,8,0.00,,CLR,0.00,VWS V14.01,2013-12-01 21:13:00,
2013-12-01 13:19:00,84.2,16.6,30.06,NW,305,0.0,3.1,8,0.00,,CLR,0.00,VWS V14.01,2013-12-01 21:19:00,
2013-12-01 13:24:00,85.1,17.2,30.06,West,265,3.1,4.0,8,0.00,,CLR,0.00,VWS V14.01,2013-12-01 21:24:00,
2013-12-01 13:29:00,84.9,17.1,30.06,WSW,245,3.1,3.1,8,0.00,,CLR,0.00,VWS V14.01,2013-12-01 21:29:00,
2013-12-01 13:35:00,83.8,16.3,30.06,West,273,3.6,5.4,8,0.00,,CLR,0.00,VWS V14.01,2013-12-01 21:35:00,
2013-12-01 13:40:00,84.9,17.1,30.06,WNW,293,5.8,5.8,8,0.00,,CLR,0.00,VWS V14.01,2013-12-01 21:40:00,
2013-12-01 13:46:00,84.5,16.8,30.06,WSW,241,0.0,3.1,8,0.00,,CLR,0.00,VWS V14.01,2013-12-01 21:46:00,
2013-12-01 13:51:00,85.1,17.2,30.06,NNW,330,4.9,4.9,8,0.00,,CLR,0.00,VWS V14.01,2013-12-01 21:51:00,
2013-12-01 13:57:00,85.1,17.2,30.06,WSW,253,0.0,3.6,8,0.00,,CLR,0.00,VWS V14.01,2013-12-01 21:57:00,
2013-12-01 14:02:00,85.1,17.2,30.03,West,268,4.9,4.9,8,0.00,,CLR,0.00,VWS V14.01,2013-12-01 22:02:00,
2013-12-01 14:07:00,84.0,16.4,30.03,WNW,284,2.7,4.9,8,0.00,,CLR,0.00,VWS V14.01,2013-12-01 22:07:00,
2013-12-01 14:12:00,84.5,16.8,30.03,WNW,283,5.4,5.4,8,0.00,,CLR,0.00,VWS V14.01,2013-12-01 22:12:00,
2013-12-01 14:18:00,84.2,16.6,30.03,NNW,330,2.2,4.0,8,0.00,,CLR,0.00,VWS V14.01,2013-12-01 22:18:00,
2013-12-01 14:24:00,84.7,17.0,30.03,NW,314,3.6,4.0,8,0.00,,CLR,0.00,VWS V14.01,2013-12-01 22:24:00,
2013-12-01 14:29:00,85.1,17.2,30.03,WNW,283,0.0,3.6,8,0.00,,CLR,0.00,VWS V14.01,2013-12-01 22:29:00,
2013-12-01 14:35:00,84.5,16.8,30.03,WNW,290,0.0,0.0,8,0.00,,CLR,0.00,VWS V14.01,2013-12-01 22:35:00,
2013-12-01 14:40:00,84.4,16.7,30.03,West,268,4.0,4.0,8,0.00,,CLR,0.00,VWS V14.01,2013-12-01 22:40:00,
2013-12-01 14:46:00,84.0,16.4,30.03,NW,306,2.2,2.2,8,0.00,,CLR,0.00,VWS V14.01,2013-12-01 22:46:00,
2013-12-01 14:51:00,84.0,16.4,30.03,NW,314,4.0,4.0,8,0.00,,CLR,0.00,VWS V14.01,2013-12-01 22:51:00,
2013-12-01 14:57:00,84.0,16.4,30.03,NNW,337,3.1,4.0,8,0.00,,CLR,0.00,VWS V14.01,2013-12-01 22:57:00,
2013-12-01 15:02:00,83.8,16.3,30.03,NNW,341,4.0,4.0,8,0.00,,CLR,0.00,VWS V14.01,2013-12-01 23:02:00,
2013-12-01 15:08:00,83.6,16.2,30.03,NW,310,3.1,4.0,8,0.00,,CLR,0.00,VWS V14.01,2013-12-01 23:08:00,
2013-12-01 15:13:00,82.7,15.5,30.03,NW,326,2.2,3.1,8,0.00,,CLR,0.00,VWS V14.01,2013-12-01 23:13:00,
2013-12-01 15:18:00,81.8,17.5,30.03,WNW,295,4.9,6.3,9,0.00,,CLR,0.00,VWS V14.01,2013-12-01 23:18:00,
2013-12-01 15:23:00,81.1,7.8,30.03,NW,313,4.9,4.9,6,0.00,,CLR,0.00,VWS V14.01,2013-12-01 23:23:00,
2013-12-01 15:28:00,80.8,7.6,30.03,WNW,302,4.0,4.0,6,0.00,,CLR,0.00,VWS V14.01,2013-12-01 23:28:00,
2013-12-01 15:34:00,80.0,16.2,30.03,SW,232,3.1,6.3,9,0.00,,CLR,0.00,VWS V14.01,2013-12-01 23:34:00,
2013-12-01 15:39:00,79.3,10.0,30.03,WNW,292,3.6,4.0,7,0.00,,SCT250,0.00,VWS V14.01,2013-12-01 23:39:00,
2013-12-01 15:44:00,79.1,9.8,30.03,WNW,282,3.1,5.4,7,0.00,,SCT250,0.00,VWS V14.01,2013-12-01 23:44:00,
2013-12-01 15:49:00,78.6,9.4,30.03,WNW,296,5.8,5.8,7,0.00,,SCT250,0.00,VWS V14.01,2013-12-01 23:49:00,
2013-12-01 15:54:00,77.9,8.9,30.03,West,274,5.8,8.1,7,0.00,,SCT250,0.00,VWS V14.01,2013-12-01 23:54:00,
2013-12-01 16:00:00,77.0,8.2,30.03,WNW,297,5.8,5.8,7,0.00,,SCT250,0.00,VWS V14.01,2013-12-02 00:00:00,
2013-12-01 16:06:00,76.1,10.6,30.03,West,276,3.6,6.3,8,0.00,,CLR,0.00,VWS V14.01,2013-12-02 00:06:00,
2013-12-01 16:11:00,76.1,10.6,30.03,West,263,5.4,5.8,8,0.00,,CLR,0.00,VWS V14.01,2013-12-02 00:11:00,
2013-12-01 16:17:00,75.7,15.3,30.03,NW,322,3.6,6.3,10,0.00,,CLR,0.00,VWS V14.01,2013-12-02 00:17:00,
2013-12-01 16:22:00,75.2,14.9,30.03,NNW,330,6.3,6.3,10,0.00,,CLR,0.00,VWS V14.01,2013-12-02 00:22:00,
2013-12-01 16:27:00,74.1,9.1,30.03,West,264,3.6,6.3,8,0.00,,CLR,0.00,VWS V14.01,2013-12-02 00:27:00,
2013-12-01 16:32:00,73.7,13.8,30.03,NW,320,2.7,4.0,10,0.00,,CLR,0.00,VWS V14.01,2013-12-02 00:32:00,
2013-12-01 16:38:00,73.2,13.4,30.03,WNW,297,3.6,4.5,10,0.00,,CLR,0.00,VWS V14.01,2013-12-02 00:38:00,
2013-12-01 16:43:00,72.1,14.8,30.03,NNW,336,8.1,8.1,11,0.00,,CLR,0.00,VWS V14.01,2013-12-02 00:43:00,
2013-12-01 16:49:00,71.4,7.1,30.03,WNW,292,4.0,4.9,8,0.00,,CLR,0.00,VWS V14.01,2013-12-02 00:49:00,
2013-12-01 16:54:00,70.5,9.0,30.03,NW,306,4.0,7.6,9,0.00,,CLR,0.00,VWS V14.01,2013-12-02 00:54:00,
2013-12-01 17:00:00,70.0,8.6,30.03,NW,324,5.8,5.8,9,0.00,,CLR,0.00,VWS V14.01,2013-12-02 01:00:00,
2013-12-01 17:06:00,69.2,8.0,30.03,NW,304,3.1,5.4,9,0.00,,CLR,0.00,VWS V14.01,2013-12-02 01:06:00,
2013-12-01 17:12:00,68.7,7.6,30.03,WNW,282,4.9,4.9,9,0.00,,CLR,0.00,VWS V14.01,2013-12-02 01:12:00,
2013-12-01 17:17:00,68.3,7.3,30.06,WNW,293,2.7,3.1,9,0.00,,CLR,0.00,VWS V14.01,2013-12-02 01:17:00,
2013-12-01 17:22:00,68.0,7.1,30.06,WNW,298,0.0,0.0,9,0.00,,CLR,0.00,VWS V14.01,2013-12-02 01:22:00,
2013-12-01 17:27:00,67.6,9.1,30.06,WNW,295,2.7,3.1,10,0.00,,CLR,0.00,VWS V14.01,2013-12-02 01:27:00,
2013-12-01 17:33:00,67.1,8.7,30.06,NNW,327,2.7,2.7,10,0.00,,CLR,0.00,VWS V14.01,2013-12-02 01:33:00,
2013-12-01 17:38:00,66.7,8.4,30.06,NNW,343,3.6,4.0,10,0.00,,CLR,0.00,VWS V14.01,2013-12-02 01:38:00,
2013-12-01 17:44:00,66.4,8.2,30.06,NW,318,3.1,3.1,10,0.00,,CLR,0.00,VWS V14.01,2013-12-02 01:44:00,
2013-12-01 17:49:00,66.0,7.9,30.06,NW,318,0.0,0.0,10,0.00,,CLR,0.00,VWS V14.01,2013-12-02 01:49:00,
2013-12-01 17:55:00,65.6,7.6,30.06,NNW,348,0.0,2.2,10,0.00,,CLR,0.00,VWS V14.01,2013-12-02 01:55:00,
2013-12-01 18:01:00,65.3,7.3,30.06,North,349,0.0,0.0,10,0.00,,CLR,0.00,VWS V14.01,2013-12-02 02:01:00,
2013-12-01 18:06:00,64.9,7.1,30.06,North,349,0.0,0.0,10,0.00,,CLR,0.00,VWS V14.01,2013-12-02 02:06:00,
2013-12-01 18:12:00,64.6,6.8,30.06,North,349,0.0,0.0,10,0.00,,CLR,0.00,VWS V14.01,2013-12-02 02:12:00,
2013-12-01 18:17:00,64.2,10.6,30.06,North,349,0.0,0.0,12,0.00,,CLR,0.00,VWS V14.01,2013-12-02 02:17:00,
2013-12-01 18:23:00,63.8,12.1,30.06,North,349,0.0,0.0,13,0.00,,CLR,0.00,VWS V14.01,2013-12-02 02:23:00,
2013-12-01 18:28:00,63.5,11.8,30.06,North,349,0.0,0.0,13,0.00,,CLR,0.00,VWS V14.01,2013-12-02 02:28:00,
2013-12-01 18:34:00,62.8,11.2,30.06,North,349,0.0,0.0,13,0.00,,CLR,0.00,VWS V14.01,2013-12-02 02:34:00,
2013-12-01 18:40:00,62.4,10.9,30.06,North,349,0.0,0.0,13,0.00,,CLR,0.00,VWS V14.01,2013-12-02 02:40:00,
2013-12-01 18:45:00,61.9,10.5,30.06,North,349,0.0,0.0,13,0.00,,CLR,0.00,VWS V14.01,2013-12-02 02:45:00,
2013-12-01 18:51:00,61.3,10.1,30.06,North,349,0.0,0.0,13,0.00,,CLR,0.00,VWS V14.01,2013-12-02 02:51:00,
2013-12-01 18:57:00,60.8,9.6,30.06,North,349,0.0,0.0,13,0.00,,CLR,0.00,VWS V14.01,2013-12-02 02:57:00,
2013-12-01 19:02:00,60.2,13.9,30.06,North,349,0.0,0.0,16,0.00,,CLR,0.00,VWS V14.01,2013-12-02 03:02:00,
2013-12-01 19:08:00,59.7,13.5,30.06,North,349,0.0,0.0,16,0.00,,CLR,0.00,VWS V14.01,2013-12-02 03:08:00,
2013-12-01 19:13:00,59.5,13.3,30.06,North,349,0.0,0.0,16,0.00,,CLR,0.00,VWS V14.01,2013-12-02 03:13:00,
2013-12-01 19:19:00,59.2,22.4,30.06,North,349,0.0,0.0,24,0.00,,CLR,0.00,VWS V14.01,2013-12-02 03:19:00,
2013-12-01 19:24:00,59.0,22.3,30.06,North,349,0.0,0.0,24,0.00,,CLR,0.00,VWS V14.01,2013-12-02 03:24:00,
2013-12-01 19:30:00,58.6,22.9,30.06,North,349,0.0,0.0,25,0.00,,CLR,0.00,VWS V14.01,2013-12-02 03:30:00,
2013-12-01 19:36:00,58.4,22.8,30.06,North,349,0.0,0.0,25,0.00,,CLR,0.00,VWS V14.01,2013-12-02 03:36:00,
2013-12-01 19:41:00,58.1,22.5,30.06,North,349,0.0,0.0,25,0.00,,CLR,0.00,VWS V14.01,2013-12-02 03:41:00,
2013-12-01 19:47:00,57.7,23.1,30.06,North,349,0.0,0.0,26,0.00,,CLR,0.00,VWS V14.01,2013-12-02 03:47:00,
2013-12-01 19:53:00,57.4,22.8,30.06,North,349,0.0,0.0,26,0.00,,CLR,0.00,VWS V14.01,2013-12-02 03:53:00,
2013-12-01 19:58:00,57.2,25.2,30.06,North,349,0.0,0.0,29,0.00,,CLR,0.00,VWS V14.01,2013-12-02 03:58:00,
2013-12-01 20:03:00,56.8,25.7,30.09,North,349,0.0,0.0,30,0.00,,CLR,0.00,VWS V14.01,2013-12-02 04:03:00,
2013-12-01 20:08:00,56.5,26.2,30.09,North,349,0.0,0.0,31,0.00,,CLR,0.00,VWS V14.01,2013-12-02 04:08:00,
2013-12-01 20:14:00,56.3,26.8,30.06,North,349,0.0,0.0,32,0.00,,CLR,0.00,VWS V14.01,2013-12-02 04:14:00,
2013-12-01 20:19:00,55.9,26.5,30.06,North,349,0.0,0.0,32,0.00,,CLR,0.00,VWS V14.01,2013-12-02 04:19:00,
2013-12-01 20:24:00,55.7,27.8,30.06,North,349,0.0,0.0,34,0.00,,CLR,0.00,VWS V14.01,2013-12-02 04:24:00,
2013-12-01 20:29:00,55.7,28.5,30.06,North,349,0.0,0.0,35,0.00,,CLR,0.00,VWS V14.01,2013-12-02 04:29:00,
2013-12-01 20:34:00,55.6,29.0,30.06,North,349,0.0,0.0,36,0.00,,CLR,0.00,VWS V14.01,2013-12-02 04:34:00,
2013-12-01 20:39:00,55.4,28.9,30.06,North,349,0.0,0.0,36,0.00,,CLR,0.00,VWS V14.01,2013-12-02 04:39:00,
2013-12-01 20:45:00,55.2,29.4,30.06,North,349,0.0,0.0,37,0.00,,CLR,0.00,VWS V14.01,2013-12-02 04:45:00,
2013-12-01 20:50:00,55.0,29.2,30.06,North,349,0.0,0.0,37,0.00,,CLR,0.00,VWS V14.01,2013-12-02 04:50:00,
2013-12-01 20:56:00,54.8,29.7,30.06,North,349,0.0,0.0,38,0.00,,CLR,0.00,VWS V14.01,2013-12-02 04:56:00,
2013-12-01 21:01:00,54.5,30.0,30.06,North,5,0.0,0.0,39,0.00,,CLR,0.00,VWS V14.01,2013-12-02 05:01:00,
2013-12-01 21:02:00,54.5,30.0,30.06,North,5,0.0,0.0,39,0.00,,CLR,0.00,VWS V14.01,2013-12-02 05:02:00,
2013-12-01 21:03:00,54.5,30.0,30.06,North,5,0.0,0.0,39,0.00,,CLR,0.00,VWS V14.01,2013-12-02 05:03:00,
2013-12-01 21:04:00,54.5,30.0,30.06,North,5,0.0,0.0,39,0.00,,CLR,0.00,VWS V14.01,2013-12-02 05:04:00,
2013-12-01 21:05:00,54.3,29.9,30.06,North,5,0.0,0.0,39,0.00,,CLR,0.00,VWS V14.01,2013-12-02 05:05:00,
2013-12-01 21:08:00,54.3,30.5,30.06,NNW,327,0.0,0.0,40,0.00,,CLR,0.00,VWS V14.01,2013-12-02 05:08:00,
2013-12-01 21:14:00,53.9,30.2,30.09,NNW,327,0.0,0.0,40,0.00,,CLR,0.00,VWS V14.01,2013-12-02 05:14:00,
2013-12-01 21:19:00,53.9,31.4,30.09,NNW,327,0.0,0.0,42,0.00,,CLR,0.00,VWS V14.01,2013-12-02 05:19:00,
2013-12-01 21:25:00,53.8,31.2,30.09,NNW,327,0.0,0.0,42,0.00,,CLR,0.00,VWS V14.01,2013-12-02 05:25:00,
2013-12-01 21:31:00,53.4,30.3,30.09,NNW,327,0.0,0.0,41,0.00,,CLR,0.00,VWS V14.01,2013-12-02 05:31:00,
2013-12-01 21:36:00,53.2,30.7,30.09,NNW,327,0.0,0.0,42,0.00,,CLR,0.00,VWS V14.01,2013-12-02 05:36:00,
2013-12-01 21:42:00,53.0,30.6,30.09,NNW,327,0.0,0.0,42,0.00,,CLR,0.00,VWS V14.01,2013-12-02 05:42:00,
2013-12-01 21:47:00,53.2,33.0,30.09,NW,311,0.0,0.0,46,0.00,,CLR,0.00,VWS V14.01,2013-12-02 05:47:00,
2013-12-01 21:53:00,53.2,33.5,30.09,NW,316,2.2,2.2,47,0.00,,CLR,0.00,VWS V14.01,2013-12-02 05:53:00,
2013-12-01 21:58:00,53.2,33.5,30.09,ENE,72,3.6,3.6,47,0.00,,CLR,0.00,VWS V14.01,2013-12-02 05:58:00,
2013-12-01 22:04:00,53.0,34.9,30.09,ENE,72,0.0,0.0,50,0.00,,CLR,0.00,VWS V14.01,2013-12-02 06:04:00,
2013-12-01 22:09:00,53.2,35.6,30.09,NW,313,4.0,4.0,51,0.00,,CLR,0.00,VWS V14.01,2013-12-02 06:09:00,
2013-12-01 22:14:00,53.2,36.1,30.09,NW,315,3.1,3.1,52,0.00,,CLR,0.00,VWS V14.01,2013-12-02 06:14:00,
2013-12-01 22:19:00,53.2,36.1,30.09,NW,319,0.0,0.0,52,0.00,,CLR,0.00,VWS V14.01,2013-12-02 06:19:00,
2013-12-01 22:25:00,53.2,36.1,30.09,North,2,3.1,3.6,52,0.00,,CLR,0.00,VWS V14.01,2013-12-02 06:25:00,
2013-12-01 22:31:00,53.4,36.2,30.09,NNE,16,4.0,4.9,52,0.00,,CLR,0.00,VWS V14.01,2013-12-02 06:31:00,
2013-12-01 22:37:00,53.2,35.6,30.09,NNE,22,2.7,2.7,51,0.00,,CLR,0.00,VWS V14.01,2013-12-02 06:37:00,
2013-12-01 22:43:00,53.0,34.4,30.09,ESE,106,0.0,0.0,49,0.00,,CLR,0.00,VWS V14.01,2013-12-02 06:43:00,
2013-12-01 22:49:00,53.2,33.5,30.09,WNW,282,4.0,4.0,47,0.00,,CLR,0.00,VWS V14.01,2013-12-02 06:49:00,
2013-12-01 22:54:00,53.2,33.0,30.09,NNW,327,3.6,4.0,46,0.00,,CLR,0.00,VWS V14.01,2013-12-02 06:54:00,
2013-12-01 22:59:00,53.4,33.2,30.09,North,353,4.0,4.0,46,0.00,,CLR,0.00,VWS V14.01,2013-12-02 06:59:00,
2013-12-01 23:05:00,53.4,32.6,30.09,North,353,0.0,0.0,45,0.00,,CLR,0.00,VWS V14.01,2013-12-02 07:05:00,
2013-12-01 23:10:00,53.0,32.3,30.09,North,353,0.0,0.0,45,0.00,,CLR,0.00,VWS V14.01,2013-12-02 07:10:00,
2013-12-01 23:16:00,52.7,32.0,30.09,North,353,0.0,0.0,45,0.00,,CLR,0.00,VWS V14.01,2013-12-02 07:16:00,
2013-12-01 23:21:00,52.5,31.2,30.09,NW,312,2.7,4.0,44,0.00,,CLR,0.00,VWS V14.01,2013-12-02 07:21:00,
2013-12-01 23:26:00,52.5,30.7,30.09,NW,312,0.0,0.0,43,0.00,,CLR,0.00,VWS V14.01,2013-12-02 07:26:00,
2013-12-01 23:31:00,52.1,30.3,30.06,NW,312,0.0,0.0,43,0.00,,CLR,0.00,VWS V14.01,2013-12-02 07:31:00,
2013-12-01 23:37:00,51.8,30.0,30.06,North,5,2.7,2.7,43,0.00,,CLR,0.00,VWS V14.01,2013-12-02 07:37:00,
2013-12-01 23:42:00,51.4,30.8,30.06,North,6,2.2,2.7,45,0.00,,CLR,0.00,VWS V14.01,2013-12-02 07:42:00,
2013-12-01 23:48:00,51.2,31.2,30.06,NNE,14,0.0,0.0,46,0.00,,CLR,0.00,VWS V14.01,2013-12-02 07:48:00,
2013-12-01 23:53:00,51.1,31.0,30.06,NNE,14,0.0,0.0,46,0.00,,CLR,0.00,VWS V14.01,2013-12-02 07:53:00,
2013-12-01 23:59:00,51.2,31.2,30.06,West,280,2.7,3.1,46,0.00,,CLR,0.00,VWS V14.01,2013-12-02 07:59:00,